Time,TemperatureF,DewpointF,PressureIn,WindDirection,WindDirectionDegrees,WindSpeedMPH,WindSpeedGustMPH,Humidity,HourlyPrecipIn,Conditions,Clouds,dailyrainin,SoftwareType,DateUTC
2013-06-04 00:10:00,63.2,29.0,29.42,WSW,252,6.0,12.0,28,0.00,,,0.00,weatherlink.com 1.10,2013-06-04 07:10:00,
2013-06-04 00:25:00,62.2,29.0,29.42,West,263,2.0,8.0,29,0.00,,,0.00,weatherlink.com 1.10,2013-06-04 07:25:00,
2013-06-04 00:40:00,62.0,30.0,29.42,WSW,250,7.0,8.0,30,0.00,,,0.00,weatherlink.com 1.10,2013-06-04 07:40:00,
2013-06-04 00:55:00,62.0,29.0,29.42,WSW,245,5.0,6.0,29,0.00,,,0.00,weatherlink.com 1.10,2013-06-04 07:55:00,
2013-06-04 01:10:00,61.8,30.0,29.41,SW,224,7.0,8.0,30,0.00,,,0.00,weatherlink.com 1.10,2013-06-04 08:10:00,
2013-06-04 01:25:00,61.8,31.0,29.41,SW,224,6.0,9.0,32,0.00,,,0.00,weatherlink.com 1.10,2013-06-04 08:25:00,
2013-06-04 01:40:00,61.3,32.0,29.41,WSW,242,5.0,7.0,33,0.00,,,0.00,weatherlink.com 1.10,2013-06-04 08:40:00,
2013-06-04 01:55:00,61.3,32.0,29.41,SW,229,3.0,8.0,33,0.00,,,0.00,weatherlink.com 1.10,2013-06-04 08:55:00,
2013-06-04 02:10:00,60.6,31.0,29.40,SSW,212,4.0,6.0,33,0.00,,,0.00,weatherlink.com 1.10,2013-06-04 09:10:00,
2013-06-04 02:25:00,60.2,31.0,29.40,South,185,4.0,5.0,33,0.00,,,0.00,weatherlink.com 1.10,2013-06-04 09:25:00,
2013-06-04 02:40:00,60.7,32.0,29.40,South,185,3.0,4.0,34,0.00,,,0.00,weatherlink.com 1.10,2013-06-04 09:40:00,
2013-06-04 02:55:00,60.8,33.0,29.40,SSE,163,1.0,5.0,35,0.00,,,0.00,weatherlink.com 1.10,2013-06-04 09:55:00,
2013-06-04 03:10:00,60.5,33.0,29.40,South,177,1.0,5.0,36,0.00,,,0.00,weatherlink.com 1.10,2013-06-04 10:10:00,
2013-06-04 03:25:00,59.9,33.0,29.40,SSW,203,2.0,5.0,37,0.00,,,0.00,weatherlink.com 1.10,2013-06-04 10:25:00,
2013-06-04 03:40:00,59.5,35.0,29.40,SW,229,4.0,6.0,40,0.00,,,0.00,weatherlink.com 1.10,2013-06-04 10:40:00,
2013-06-04 03:55:00,59.7,36.0,29.40,SW,226,3.0,6.0,41,0.00,,,0.00,weatherlink.com 1.10,2013-06-04 10:55:00,
2013-06-04 04:10:00,60.1,37.0,29.40,SW,224,4.0,5.0,42,0.00,,,0.00,weatherlink.com 1.10,2013-06-04 11:10:00,
2013-06-04 04:25:00,59.6,37.0,29.40,SSW,210,4.0,6.0,43,0.00,,,0.00,weatherlink.com 1.10,2013-06-04 11:25:00,
2013-06-04 04:40:00,59.3,38.0,29.40,SW,232,3.0,8.0,46,0.00,,,0.00,weatherlink.com 1.10,2013-06-04 11:40:00,
2013-06-04 04:55:00,59.1,40.0,29.40,SW,232,3.0,7.0,49,0.00,,,0.00,weatherlink.com 1.10,2013-06-04 11:55:00,
2013-06-04 05:10:00,59.0,39.0,29.40,SW,215,2.0,7.0,48,0.00,,,0.00,weatherlink.com 1.10,2013-06-04 12:10:00,
2013-06-04 05:25:00,58.6,39.0,29.40,West,278,3.0,9.0,49,0.00,,,0.00,weatherlink.com 1.10,2013-06-04 12:25:00,
2013-06-04 05:40:00,58.3,38.0,29.41,NW,312,1.0,6.0,48,0.00,,,0.00,weatherlink.com 1.10,2013-06-04 12:40:00,
2013-06-04 05:55:00,59.8,35.0,29.41,SSW,212,1.0,8.0,40,0.00,,,0.00,weatherlink.com 1.10,2013-06-04 12:55:00,
2013-06-04 06:10:00,61.4,33.0,29.41,WNW,296,0.0,7.0,34,0.00,,,0.00,weatherlink.com 1.10,2013-06-04 13:10:00,
2013-06-04 06:25:00,63.1,31.0,29.42,NW,308,2.0,5.0,30,0.00,,,0.00,weatherlink.com 1.10,2013-06-04 13:25:00,
2013-06-04 06:40:00,63.4,34.0,29.42,NNW,333,1.0,5.0,33,0.00,,,0.00,weatherlink.com 1.10,2013-06-04 13:40:00,
2013-06-04 06:55:00,64.6,36.0,29.42,North,354,3.0,7.0,35,0.00,,,0.00,weatherlink.com 1.10,2013-06-04 13:55:00,
2013-06-04 07:10:00,64.6,31.0,29.43,South,191,2.0,8.0,29,0.00,,,0.00,weatherlink.com 1.10,2013-06-04 14:10:00,
2013-06-04 07:25:00,64.6,30.0,29.43,SW,235,5.0,9.0,27,0.00,,,0.00,weatherlink.com 1.10,2013-06-04 14:25:00,
2013-06-04 07:40:00,65.1,32.0,29.44,South,177,2.0,6.0,29,0.00,,,0.00,weatherlink.com 1.10,2013-06-04 14:40:00,
2013-06-04 07:55:00,64.7,31.0,29.44,NNW,343,2.0,3.0,28,0.00,,,0.00,weatherlink.com 1.10,2013-06-04 14:55:00,
2013-06-04 08:10:00,64.7,29.0,29.44,WSW,253,1.0,7.0,26,0.00,,,0.00,weatherlink.com 1.10,2013-06-04 15:10:00,
2013-06-04 08:25:00,64.8,25.0,29.45,SE,131,2.0,11.0,22,0.00,,,0.00,weatherlink.com 1.10,2013-06-04 15:25:00,
2013-06-04 08:40:00,64.5,27.0,29.45,SSE,150,2.0,8.0,24,0.00,,,0.00,weatherlink.com 1.10,2013-06-04 15:40:00,
2013-06-04 08:55:00,64.3,27.0,29.45,SW,224,5.0,10.0,24,0.00,,,0.00,weatherlink.com 1.10,2013-06-04 15:55:00,
2013-06-04 09:10:00,64.1,28.0,29.45,SSW,194,9.0,11.0,26,0.00,,,0.00,weatherlink.com 1.10,2013-06-04 16:10:00,
2013-06-04 09:25:00,64.3,31.0,29.45,SW,221,6.0,14.0,29,0.00,,,0.00,weatherlink.com 1.10,2013-06-04 16:25:00,
2013-06-04 09:40:00,65.9,34.0,29.46,SW,226,2.0,7.0,30,0.00,,,0.00,weatherlink.com 1.10,2013-06-04 16:40:00,
2013-06-04 09:55:00,66.0,33.0,29.46,NW,321,2.0,10.0,29,0.00,,,0.00,weatherlink.com 1.10,2013-06-04 16:55:00,
2013-06-04 10:10:00,66.4,33.0,29.46,ESE,122,1.0,10.0,29,0.00,,,0.00,weatherlink.com 1.10,2013-06-04 17:10:00,
2013-06-04 10:25:00,67.5,31.0,29.46,ESE,123,1.0,10.0,26,0.00,,,0.00,weatherlink.com 1.10,2013-06-04 17:25:00,
2013-06-04 10:40:00,68.4,34.0,29.46,SW,236,2.0,12.0,28,0.00,,,0.00,weatherlink.com 1.10,2013-06-04 17:40:00,
2013-06-04 10:55:00,68.6,34.0,29.46,SE,146,5.0,9.0,28,0.00,,,0.00,weatherlink.com 1.10,2013-06-04 17:55:00,
2013-06-04 11:10:00,69.1,35.0,29.45,WSW,242,5.0,11.0,28,0.00,,,0.00,weatherlink.com 1.10,2013-06-04 18:10:00,
2013-06-04 11:25:00,70.6,33.0,29.45,East,91,3.0,10.0,25,0.00,,,0.00,weatherlink.com 1.10,2013-06-04 18:25:00,
2013-06-04 11:40:00,71.7,33.0,29.45,ENE,64,4.0,11.0,24,0.00,,,0.00,weatherlink.com 1.10,2013-06-04 18:40:00,
2013-06-04 11:55:00,71.6,32.0,29.45,WSW,242,2.0,9.0,23,0.00,,,0.00,weatherlink.com 1.10,2013-06-04 18:55:00,
2013-06-04 12:10:00,71.6,33.0,29.45,SW,224,4.0,13.0,24,0.00,,,0.00,weatherlink.com 1.10,2013-06-04 19:10:00,
2013-06-04 12:25:00,70.8,33.0,29.44,SE,134,2.0,12.0,25,0.00,,,0.00,weatherlink.com 1.10,2013-06-04 19:25:00,
2013-06-04 12:40:00,70.9,32.0,29.44,WNW,302,7.0,13.0,24,0.00,,,0.00,weatherlink.com 1.10,2013-06-04 19:40:00,
2013-06-04 12:56:00,70.3,31.0,29.44,SW,226,10.0,14.0,23,0.00,,,0.00,weatherlink.com 1.10,2013-06-04 19:56:00,
2013-06-04 13:11:00,70.6,26.0,29.44,SSW,195,5.0,17.0,19,0.00,,,0.00,weatherlink.com 1.10,2013-06-04 20:11:00,
2013-06-04 13:26:00,70.4,26.0,29.44,SW,215,4.0,17.0,19,0.00,,,0.00,weatherlink.com 1.10,2013-06-04 20:26:00,
2013-06-04 13:41:00,71.7,25.0,29.44,ESE,104,2.0,15.0,17,0.00,,,0.00,weatherlink.com 1.10,2013-06-04 20:41:00,
2013-06-04 13:56:00,71.8,30.0,29.43,NE,44,5.0,13.0,21,0.00,,,0.00,weatherlink.com 1.10,2013-06-04 20:56:00,
2013-06-04 14:11:00,72.8,31.0,29.43,North,354,2.0,11.0,21,0.00,,,0.00,weatherlink.com 1.10,2013-06-04 21:11:00,
2013-06-04 14:26:00,72.3,31.0,29.43,SE,127,2.0,13.0,22,0.00,,,0.00,weatherlink.com 1.10,2013-06-04 21:26:00,
2013-06-04 14:41:00,72.8,34.0,29.42,WSW,256,9.0,16.0,24,0.00,,,0.00,weatherlink.com 1.10,2013-06-04 21:41:00,
2013-06-04 14:56:00,72.6,30.0,29.42,WSW,256,2.0,14.0,21,0.00,,,0.00,weatherlink.com 1.10,2013-06-04 21:56:00,
2013-06-04 16:26:00,73.3,29.0,29.40,SSW,207,5.0,12.0,19,0.00,,,0.00,weatherlink.com 1.10,2013-06-04 23:26:00,
2013-06-04 16:41:00,72.8,32.0,29.40,WNW,294,3.0,14.0,22,0.00,,,0.00,weatherlink.com 1.10,2013-06-04 23:41:00,
2013-06-04 16:56:00,72.2,31.0,29.40,SW,221,12.0,16.0,22,0.00,,,0.00,weatherlink.com 1.10,2013-06-04 23:56:00,
2013-06-04 17:41:00,71.9,29.0,29.39,NW,318,4.0,16.0,20,0.00,,,0.00,weatherlink.com 1.10,2013-06-05 00:41:00,
2013-06-04 17:56:00,71.3,27.0,29.39,WSW,245,4.0,15.0,19,0.00,,,0.00,weatherlink.com 1.10,2013-06-05 00:56:00,
2013-06-04 18:11:00,70.6,26.0,29.39,WNW,293,4.0,18.0,19,0.00,,,0.00,weatherlink.com 1.10,2013-06-05 01:11:00,
2013-06-04 18:26:00,70.4,27.0,29.39,West,271,13.0,16.0,20,0.00,,,0.00,weatherlink.com 1.10,2013-06-05 01:26:00,
2013-06-04 18:41:00,69.9,28.0,29.39,SE,140,4.0,15.0,21,0.00,,,0.00,weatherlink.com 1.10,2013-06-05 01:41:00,
2013-06-04 18:56:00,68.9,28.0,29.40,SW,226,12.0,14.0,22,0.00,,,0.00,weatherlink.com 1.10,2013-06-05 01:56:00,
2013-06-04 19:11:00,67.9,28.0,29.41,West,262,9.0,18.0,22,0.00,,,0.00,weatherlink.com 1.10,2013-06-05 02:11:00,
2013-06-04 19:26:00,66.5,27.0,29.41,SSW,212,13.0,17.0,23,0.00,,,0.00,weatherlink.com 1.10,2013-06-05 02:26:00,
2013-06-04 19:41:00,65.7,27.0,29.41,WSW,239,11.0,19.0,23,0.00,,,0.00,weatherlink.com 1.10,2013-06-05 02:41:00,
2013-06-04 19:56:00,65.4,28.0,29.42,West,262,11.0,20.0,24,0.00,,,0.00,weatherlink.com 1.10,2013-06-05 02:56:00,
2013-06-04 20:11:00,65.1,28.0,29.42,SW,229,10.0,21.0,25,0.00,,,0.00,weatherlink.com 1.10,2013-06-05 03:11:00,
2013-06-04 20:27:00,64.6,29.0,29.42,West,267,21.0,22.0,26,0.00,,,0.00,weatherlink.com 1.10,2013-06-05 03:27:00,
2013-06-04 20:41:00,64.3,31.0,29.43,SSW,198,7.0,20.0,29,0.00,,,0.00,weatherlink.com 1.10,2013-06-05 03:41:00,
2013-06-04 20:57:00,64.0,33.0,29.43,SW,219,9.0,25.0,31,0.00,,,0.00,weatherlink.com 1.10,2013-06-05 03:57:00,
2013-06-04 21:12:00,63.6,33.0,29.43,SW,233,7.0,21.0,32,0.00,,,0.00,weatherlink.com 1.10,2013-06-05 04:12:00,
2013-06-04 21:27:00,63.2,34.0,29.43,ENE,65,8.0,23.0,34,0.00,,,0.00,weatherlink.com 1.10,2013-06-05 04:27:00,
2013-06-04 21:42:00,63.0,34.0,29.43,NNW,338,8.0,23.0,34,0.00,,,0.00,weatherlink.com 1.10,2013-06-05 04:42:00,
2013-06-04 21:57:00,62.2,34.0,29.43,SSW,212,13.0,17.0,35,0.00,,,0.00,weatherlink.com 1.10,2013-06-05 04:57:00,
2013-06-04 22:12:00,61.9,34.0,29.43,West,259,13.0,20.0,35,0.00,,,0.00,weatherlink.com 1.10,2013-06-05 05:12:00,
2013-06-04 22:27:00,62.1,33.0,29.43,SW,219,8.0,18.0,34,0.00,,,0.00,weatherlink.com 1.10,2013-06-05 05:27:00,
2013-06-04 22:42:00,62.3,33.0,29.43,West,278,10.0,16.0,33,0.00,,,0.00,weatherlink.com 1.10,2013-06-05 05:42:00,
2013-06-04 22:57:00,62.0,33.0,29.43,West,266,12.0,19.0,34,0.00,,,0.00,weatherlink.com 1.10,2013-06-05 05:57:00,
2013-06-04 23:11:00,62.0,32.0,29.43,WSW,240,13.0,19.0,33,0.00,,,0.00,weatherlink.com 1.10,2013-06-05 06:11:00,
2013-06-04 23:27:00,61.8,34.0,29.43,WSW,256,11.0,16.0,35,0.00,,,0.00,weatherlink.com 1.10,2013-06-05 06:27:00,
2013-06-04 23:42:00,61.4,34.0,29.43,West,271,7.0,17.0,36,0.00,,,0.00,weatherlink.com 1.10,2013-06-05 06:42:00,
2013-06-04 23:57:00,60.9,32.0,29.43,WSW,250,13.0,16.0,34,0.00,,,0.00,weatherlink.com 1.10,2013-06-05 06:57:00,